Riyadh, Saudi Arabia
Current Conditions -  °F | °C
As of 7:00 AM on Thursday 27 Nov 2014 (Local Time) from OERY Reporting Station
Broken Clouds Broken Clouds  
Wind Chill: 15°   Ceiling: 700
Heat Index: 15°   Visibility: 2.5mi
Dew Point: 14°   Wind: 8mph
Humidity: 94%   Direction: 120°ESE
Pressure: 30.12"   Gusts: NA
Location:  24.65°N, 46.77°E
Report Text: OERY 270400Z 12007KT 4000 SCT080 BKN007 15/14 Q1020
Loading
Personal Weather Stations






























Interactive Weather Map New forecast layout! Learn more

10-Day Weather Forecast

Advertisements
Track Severe Weather on mobile